Time;durP1;ratioP1;P1;durP2;ratioP2;P2;SDS_P1;SDS_P2;PMS_P1;PMS_P2;Temp;Humidity;BMP_temperature;BMP_pressure;BME280_temperature;BME280_humidity;BME280_pressure;Samples;Min_cycle;Max_cycle;Signal;HPM_P1;HPM_P2
2023/05/17 00:01:58;;;;;;;9.40;8.60;;;;;;;14.00;82.98;100349.86;103822;278;39480;-72
2023/05/17 00:04:36;;;;;;;9.90;8.90;;;;;;;13.96;82.94;100349.02;103860;278;38485;-72
2023/05/17 00:07:12;;;;;;;10.00;9.10;;;;;;;13.91;83.00;100347.14;103819;278;39395;-71
2023/05/17 00:09:46;;;;;;;10.30;9.40;;;;;;;13.87;83.15;100346.48;103811;278;39881;-72
2023/05/17 00:12:20;;;;;;;9.20;8.10;;;;;;;13.83;83.63;100348.09;103793;278;38242;-72
2023/05/17 00:14:55;;;;;;;9.00;8.10;;;;;;;13.80;83.53;100347.90;103679;279;40244;-71
2023/05/17 00:17:29;;;;;;;8.30;7.60;;;;;;;13.81;83.53;100349.98;103810;278;39644;-71
2023/05/17 00:20:10;;;;;;;9.10;8.20;;;;;;;13.79;83.53;100347.60;103793;278;38499;-71
2023/05/17 00:22:46;;;;;;;9.40;8.50;;;;;;;13.80;83.76;100345.82;103809;278;38224;-72
2023/05/17 00:25:20;;;;;;;10.00;9.10;;;;;;;13.80;83.62;100351.61;103843;278;38836;-73
2023/05/17 00:27:54;;;;;;;8.90;8.10;;;;;;;13.79;83.75;100347.59;103812;278;38248;-73
2023/05/17 00:30:31;;;;;;;8.80;7.90;;;;;;;13.79;83.69;100350.96;103857;278;38253;-72
2023/05/17 00:33:08;;;;;;;9.50;8.50;;;;;;;13.79;84.03;100348.11;103749;278;38885;-72
2023/05/17 00:35:43;;;;;;;9.50;8.60;;;;;;;13.81;83.93;100350.83;103798;278;38498;-73
2023/05/17 00:38:22;;;;;;;10.80;8.80;;;;;;;13.82;84.35;100349.91;103821;278;39397;-73
2023/05/17 00:40:59;;;;;;;9.90;9.00;;;;;;;13.80;84.21;100341.92;103810;278;38723;-72
2023/05/17 00:43:35;;;;;;;9.30;8.40;;;;;;;13.81;84.36;100343.11;103826;278;38729;-72
2023/05/17 00:46:09;;;;;;;10.10;9.20;;;;;;;13.81;84.31;100345.74;103820;278;39079;-72
2023/05/17 00:48:44;;;;;;;9.90;8.90;;;;;;;13.82;84.29;100352.02;103801;278;39703;-72
2023/05/17 00:51:21;;;;;;;10.50;9.50;;;;;;;13.81;84.33;100351.88;103853;278;38605;-73
2023/05/17 00:53:57;;;;;;;9.80;8.80;;;;;;;13.82;84.47;100357.08;103844;278;38938;-72
2023/05/17 00:56:31;;;;;;;9.40;8.50;;;;;;;13.80;84.57;100356.84;103818;278;38271;-72
2023/05/17 00:59:07;;;;;;;10.10;9.10;;;;;;;13.81;84.67;100354.02;103836;278;38405;-73
2023/05/17 01:01:42;;;;;;;9.90;9.00;;;;;;;13.81;84.47;100355.05;103834;278;38493;-73
2023/05/17 01:04:21;;;;;;;10.20;9.30;;;;;;;13.81;84.63;100356.80;103827;278;38656;-73
2023/05/17 01:06:58;;;;;;;10.30;9.40;;;;;;;13.82;84.63;100354.61;103820;278;38289;-73
2023/05/17 01:09:34;;;;;;;10.90;9.80;;;;;;;13.81;84.68;100351.91;103793;266;38236;-72
2023/05/17 01:12:22;;;;;;;10.20;9.10;;;;;;;13.78;84.79;100352.38;103810;278;38737;-72
2023/05/17 01:15:03;;;;;;;10.70;9.70;;;;;;;13.76;84.90;100346.55;103774;278;39590;-72
2023/05/17 01:17:41;;;;;;;11.00;9.90;;;;;;;13.75;84.99;100349.23;103804;278;39050;-72
2023/05/17 01:20:25;;;;;;;11.90;10.80;;;;;;;13.75;85.14;100345.71;103568;279;172367;-72
2023/05/17 01:23:15;;;;;;;11.20;10.10;;;;;;;13.74;85.23;100343.15;103795;278;38413;-72
2023/05/17 01:26:05;;;;;;;11.00;9.90;;;;;;;13.71;85.24;100343.81;103838;278;38313;-73
2023/05/17 01:28:40;;;;;;;10.40;9.40;;;;;;;13.69;85.51;100344.76;103777;278;38671;-72
2023/05/17 01:31:17;;;;;;;10.90;9.70;;;;;;;13.69;85.85;100341.46;103822;278;38923;-71
2023/05/17 01:33:51;;;;;;;12.10;10.70;;;;;;;13.68;85.95;100342.55;103807;278;38832;-73
2023/05/17 01:36:27;;;;;;;11.10;9.90;;;;;;;13.64;85.97;100339.98;103789;278;38697;-73
2023/05/17 01:39:01;;;;;;;11.10;9.80;;;;;;;13.58;85.81;100339.55;103825;278;38313;-74
2023/05/17 01:41:41;;;;;;;11.40;9.40;;;;;;;13.57;85.98;100345.23;103791;278;39626;-72
2023/05/17 01:44:34;;;;;;;10.70;9.70;;;;;;;13.57;86.12;100347.00;103816;278;38480;-73
2023/05/17 01:47:14;;;;;;;12.10;10.90;;;;;;;13.56;86.18;100344.02;103807;278;39902;-73
2023/05/17 01:49:55;;;;;;;11.00;9.90;;;;;;;13.56;86.35;100344.05;103829;278;39175;-74
2023/05/17 01:52:38;;;;;;;10.40;9.40;;;;;;;13.56;86.45;100343.19;103816;278;38261;-74
2023/05/17 01:55:28;;;;;;;10.30;9.30;;;;;;;13.57;86.42;100343.15;103830;278;39435;-73
2023/05/17 01:58:02;;;;;;;11.10;9.90;;;;;;;13.57;86.37;100339.81;103755;278;38469;-72
2023/05/17 02:00:40;;;;;;;10.60;9.60;;;;;;;13.58;86.47;100340.48;103819;278;40081;-74
2023/05/17 02:03:20;;;;;;;10.70;9.60;;;;;;;13.52;86.32;100340.40;103802;278;40216;-75
2023/05/17 02:05:57;;;;;;;10.00;9.10;;;;;;;13.49;86.71;100342.16;103886;277;39440;-73
2023/05/17 02:08:33;;;;;;;10.50;9.50;;;;;;;13.46;86.71;100344.20;103895;277;39520;-73
2023/05/17 02:11:08;;;;;;;10.30;9.30;;;;;;;13.44;86.83;100349.21;103807;278;38222;-72
2023/05/17 02:13:42;;;;;;;10.90;9.90;;;;;;;13.42;86.85;100349.45;103831;278;39409;-73
2023/05/17 02:16:16;;;;;;;11.10;10.10;;;;;;;13.45;87.10;100348.64;103782;278;38392;-74
2023/05/17 02:18:52;;;;;;;11.30;10.20;;;;;;;13.48;87.11;100347.27;103795;278;38515;-74
2023/05/17 02:21:26;;;;;;;11.50;10.50;;;;;;;13.47;87.14;100351.16;103710;279;38383;-73
2023/05/17 02:24:03;;;;;;;11.30;10.10;;;;;;;13.47;87.09;100352.77;103805;278;38701;-74
2023/05/17 02:26:41;;;;;;;11.60;10.50;;;;;;;13.46;87.20;100355.09;103810;278;38883;-73
2023/05/17 02:29:16;;;;;;;12.20;11.00;;;;;;;13.44;87.25;100351.17;103812;278;38241;-72
2023/05/17 02:31:51;;;;;;;12.80;11.70;;;;;;;13.42;87.41;100353.67;103747;278;39114;-71
2023/05/17 02:34:25;;;;;;;12.90;11.70;;;;;;;13.41;87.42;100356.02;103727;278;38919;-73
2023/05/17 02:37:02;;;;;;;13.30;12.10;;;;;;;13.37;87.60;100360.92;103805;278;38257;-73
2023/05/17 02:39:41;;;;;;;13.60;12.30;;;;;;;13.36;87.64;100357.86;103823;278;38949;-74
2023/05/17 02:42:17;;;;;;;12.50;11.40;;;;;;;13.35;87.61;100354.02;103814;278;38276;-74
2023/05/17 02:44:56;;;;;;;13.10;11.90;;;;;;;13.36;87.91;100354.70;103809;278;38236;-73
2023/05/17 02:47:33;;;;;;;14.40;13.10;;;;;;;13.35;88.08;100350.01;103798;278;39896;-72
2023/05/17 02:50:12;;;;;;;15.30;13.80;;;;;;;13.31;88.01;100352.15;103803;278;38623;-73
2023/05/17 02:52:46;;;;;;;14.90;13.50;;;;;;;13.30;88.25;100361.31;103830;278;38238;-73
2023/05/17 02:55:23;;;;;;;15.40;14.00;;;;;;;13.29;88.22;100366.96;103770;278;38362;-71
2023/05/17 02:57:57;;;;;;;15.60;14.00;;;;;;;13.29;88.61;100374.13;103780;278;38254;-73
2023/05/17 03:00:36;;;;;;;14.20;12.80;;;;;;;13.25;88.90;100375.23;103791;278;38264;-73
2023/05/17 03:03:11;;;;;;;14.40;13.00;;;;;;;13.23;88.59;100379.02;103835;278;38255;-74
2023/05/17 03:05:46;;;;;;;14.10;12.80;;;;;;;13.26;88.95;100378.64;103650;280;38793;-73
2023/05/17 03:08:23;;;;;;;14.10;12.70;;;;;;;13.31;88.90;100377.91;103784;278;39623;-73
2023/05/17 03:11:06;;;;;;;15.20;13.80;;;;;;;13.30;88.71;100380.60;103804;278;38970;-74
2023/05/17 03:13:41;;;;;;;14.40;13.00;;;;;;;13.32;88.90;100375.90;103845;278;39074;-73
2023/05/17 03:16:26;;;;;;;14.20;12.80;;;;;;;13.33;88.83;100381.98;103827;278;38497;-74
2023/05/17 03:19:03;;;;;;;14.30;12.80;;;;;;;13.32;88.70;100385.04;103856;278;39567;-74
2023/05/17 03:21:37;;;;;;;13.90;12.60;;;;;;;13.32;88.85;100388.16;103886;278;38850;-74
2023/05/17 03:24:12;;;;;;;14.60;13.30;;;;;;;13.34;88.79;100388.10;103827;278;40827;-73
2023/05/17 03:26:49;;;;;;;14.90;13.60;;;;;;;13.34;88.87;100390.52;103769;278;38753;-73
2023/05/17 03:29:29;;;;;;;14.50;13.10;;;;;;;13.34;88.76;100394.06;103758;278;38252;-72
2023/05/17 03:32:03;;;;;;;15.00;13.30;;;;;;;13.32;88.81;100399.73;103797;278;38877;-72
2023/05/17 03:34:38;;;;;;;14.30;12.90;;;;;;;13.34;88.89;100393.52;103769;278;38328;-73
2023/05/17 03:37:12;;;;;;;14.30;13.00;;;;;;;13.34;88.82;100390.19;103786;278;38217;-73
2023/05/17 03:39:47;;;;;;;14.20;12.80;;;;;;;13.35;89.04;100385.95;103798;278;38308;-73
2023/05/17 03:42:22;;;;;;;14.30;13.00;;;;;;;13.38;89.01;100394.20;103779;278;38520;-73
2023/05/17 03:44:57;;;;;;;14.40;13.10;;;;;;;13.37;89.13;100396.48;103795;278;39451;-72
2023/05/17 03:47:31;;;;;;;14.50;13.00;;;;;;;13.35;89.11;100401.52;103775;278;38383;-72
2023/05/17 03:50:09;;;;;;;13.70;12.40;;;;;;;13.37;89.11;100400.04;103814;278;39235;-70
2023/05/17 03:52:45;;;;;;;11.90;10.80;;;;;;;13.36;88.99;100398.48;103380;278;648251;-72
2023/05/17 03:55:19;;;;;;;11.50;10.50;;;;;;;13.36;89.12;100399.36;103802;278;38211;-72
2023/05/17 03:57:54;;;;;;;12.10;11.00;;;;;;;13.35;89.02;100396.94;103779;274;38521;-73
2023/05/17 04:00:31;;;;;;;12.10;10.90;;;;;;;13.35;89.04;100396.96;103775;278;38501;-73
2023/05/17 04:03:08;;;;;;;11.40;10.40;;;;;;;13.35;89.22;100401.00;103118;278;904626;-73
2023/05/17 04:05:44;;;;;;;10.10;9.20;;;;;;;13.34;89.27;100407.02;103802;278;38596;-73
2023/05/17 04:08:20;;;;;;;9.50;8.70;;;;;;;13.31;88.95;100409.26;103789;278;39823;-73
2023/05/17 04:11:08;;;;;;;9.70;8.90;;;;;;;13.29;89.25;100416.20;103810;278;38470;-74
2023/05/17 04:13:50;;;;;;;10.50;9.60;;;;;;;13.25;89.39;100413.77;103822;278;38264;-73
2023/05/17 04:16:25;;;;;;;9.90;9.00;;;;;;;13.21;89.50;100414.44;103677;278;174046;-73
2023/05/17 04:19:01;;;;;;;9.30;8.50;;;;;;;13.22;89.54;100410.75;103823;278;38250;-73
2023/05/17 04:21:39;;;;;;;8.70;7.80;;;;;;;13.24;89.54;100410.14;103830;278;38242;-71
2023/05/17 04:24:18;;;;;;;9.30;8.40;;;;;;;13.22;89.57;100414.80;103864;278;38358;-74
2023/05/17 04:26:58;;;;;;;8.80;8.10;;;;;;;13.20;89.73;100420.60;103818;278;38239;-74
2023/05/17 04:29:35;;;;;;;9.00;8.30;;;;;;;13.21;89.74;100421.48;103835;278;39947;-72
2023/05/17 04:32:11;;;;;;;9.40;8.50;;;;;;;13.22;90.18;100423.17;103872;278;38787;-71
2023/05/17 04:34:46;;;;;;;8.50;7.80;;;;;;;13.22;90.17;100422.28;103883;278;38237;-74
2023/05/17 04:37:23;;;;;;;8.20;7.40;;;;;;;13.22;90.14;100422.14;103855;278;38664;-73
2023/05/17 04:40:01;;;;;;;7.80;7.10;;;;;;;13.23;90.05;100419.27;103787;278;38819;-71
2023/05/17 04:42:36;;;;;;;7.50;6.80;;;;;;;13.24;90.00;100415.91;103834;278;38692;-71
2023/05/17 04:45:12;;;;;;;7.60;6.90;;;;;;;13.27;90.24;100418.71;103849;278;38453;-72
2023/05/17 04:47:49;;;;;;;7.10;6.50;;;;;;;13.25;89.98;100420.96;103812;278;38660;-73
2023/05/17 04:50:24;;;;;;;6.80;6.30;;;;;;;13.24;90.12;100427.30;103781;278;38273;-74
2023/05/17 04:52:58;;;;;;;7.90;6.20;;;;;;;13.24;90.05;100430.78;103791;278;39675;-71
2023/05/17 04:55:34;;;;;;;6.60;5.50;;;;;;;13.24;89.92;100437.13;103797;278;39416;-73
2023/05/17 04:58:10;;;;;;;5.20;4.80;;;;;;;13.18;90.06;100441.54;103784;278;39435;-70
2023/05/17 05:00:48;;;;;;;5.20;4.80;;;;;;;13.14;90.05;100442.98;103779;278;39425;-72
2023/05/17 05:03:26;;;;;;;5.60;5.20;;;;;;;13.10;90.13;100444.91;103711;278;38715;-72
2023/05/17 05:06:00;;;;;;;5.10;4.70;;;;;;;13.07;90.01;100447.17;103818;278;38236;-71
2023/05/17 05:08:37;;;;;;;5.40;5.00;;;;;;;13.05;90.22;100450.77;103767;278;38694;-72
2023/05/17 05:11:12;;;;;;;5.40;4.90;;;;;;;13.04;90.29;100453.95;103824;278;38273;-73
2023/05/17 05:13:48;;;;;;;5.40;5.00;;;;;;;13.07;90.27;100452.59;103819;278;38907;-73
2023/05/17 05:16:21;;;;;;;5.60;5.10;;;;;;;13.10;90.14;100452.96;103779;278;39169;-73
2023/05/17 05:18:56;;;;;;;6.40;5.90;;;;;;;13.11;90.15;100455.57;103796;278;39066;-73
2023/05/17 05:21:30;;;;;;;6.00;5.50;;;;;;;13.13;90.25;100459.15;103824;278;39646;-73
2023/05/17 05:24:09;;;;;;;6.30;5.70;;;;;;;13.11;90.36;100457.27;103813;278;38464;-73
2023/05/17 05:26:47;;;;;;;5.50;5.10;;;;;;;13.09;90.54;100454.41;103812;266;38816;-73
2023/05/17 05:29:25;;;;;;;5.70;5.20;;;;;;;13.12;90.51;100451.30;103802;278;38428;-74
2023/05/17 05:32:00;;;;;;;5.20;4.70;;;;;;;13.15;90.62;100445.91;103678;278;174799;-73
2023/05/17 05:34:36;;;;;;;5.30;4.80;;;;;;;13.16;90.57;100448.48;103781;278;38769;-73
2023/05/17 05:37:14;;;;;;;5.30;4.80;;;;;;;13.21;90.69;100452.67;103830;278;39922;-72
2023/05/17 05:39:54;;;;;;;5.20;4.80;;;;;;;13.20;90.50;100450.73;103799;278;38342;-73
2023/05/17 05:42:28;;;;;;;5.00;4.60;;;;;;;13.21;90.64;100441.61;103801;278;38223;-72
2023/05/17 05:45:05;;;;;;;5.10;4.60;;;;;;;13.19;90.67;100426.61;103783;278;39657;-73
2023/05/17 05:47:43;;;;;;;4.80;4.40;;;;;;;13.22;90.93;100410.59;103817;278;38828;-73
2023/05/17 05:50:17;;;;;;;4.50;4.10;;;;;;;13.28;90.89;100405.05;103791;278;38283;-73
2023/05/17 05:52:55;;;;;;;4.90;4.50;;;;;;;13.34;90.88;100411.92;103794;278;38413;-72
2023/05/17 05:55:30;;;;;;;4.70;4.30;;;;;;;13.38;90.54;100413.42;103829;278;38614;-73
2023/05/17 05:58:05;;;;;;;4.80;4.40;;;;;;;13.38;90.31;100414.33;103819;278;40351;-72
2023/05/17 06:00:39;;;;;;;4.60;4.30;;;;;;;13.39;90.06;100416.21;103710;280;38566;-72
2023/05/17 06:03:13;;;;;;;5.00;4.50;;;;;;;13.41;90.09;100419.80;103796;278;38526;-72
2023/05/17 06:05:52;;;;;;;4.70;4.30;;;;;;;13.42;89.91;100430.27;103802;278;38243;-73
2023/05/17 06:08:31;;;;;;;4.50;4.10;;;;;;;13.45;90.01;100438.55;103451;278;175117;-74
2023/05/17 06:11:05;;;;;;;4.90;4.50;;;;;;;13.47;90.03;100444.76;103764;278;38272;-70
2023/05/17 06:13:40;;;;;;;4.80;4.40;;;;;;;13.49;90.05;100450.24;103820;278;38659;-73
2023/05/17 06:16:14;;;;;;;4.80;4.40;;;;;;;13.54;90.03;100451.09;103817;278;39701;-72
2023/05/17 06:18:48;;;;;;;4.50;4.20;;;;;;;13.53;89.83;100461.25;103794;278;38438;-73
2023/05/17 06:21:24;;;;;;;5.00;4.60;;;;;;;13.52;89.71;100461.52;103774;278;39635;-72
2023/05/17 06:23:58;;;;;;;4.80;4.40;;;;;;;13.53;89.55;100460.77;103823;278;39377;-74
2023/05/17 06:26:34;;;;;;;5.70;4.70;;;;;;;13.53;89.79;100462.52;103798;278;38792;-73
2023/05/17 06:29:09;;;;;;;4.90;4.40;;;;;;;13.54;89.80;100465.28;103775;278;39686;-73
2023/05/17 06:31:43;;;;;;;5.10;4.70;;;;;;;13.52;89.70;100465.19;103781;278;38557;-72
2023/05/17 06:34:18;;;;;;;5.00;4.50;;;;;;;13.51;89.66;100465.41;103796;278;38242;-72
2023/05/17 06:36:55;;;;;;;5.40;4.50;;;;;;;13.51;89.77;100470.67;103816;278;39433;-72
2023/05/17 06:39:30;;;;;;;5.10;4.70;;;;;;;13.47;89.65;100469.47;103828;278;39455;-72
2023/05/17 06:42:07;;;;;;;4.70;4.40;;;;;;;13.46;89.80;100478.09;103822;278;38493;-72
2023/05/17 06:44:44;;;;;;;5.10;4.70;;;;;;;13.45;89.91;100484.98;103825;278;38742;-72
2023/05/17 06:47:26;;;;;;;4.80;4.40;;;;;;;13.42;89.91;100493.00;103855;278;38234;-72
2023/05/17 06:50:03;;;;;;;8.20;5.10;;;;;;;13.39;89.87;100498.40;103837;278;39389;-72
2023/05/17 06:52:47;;;;;;;5.00;4.50;;;;;;;13.39;90.02;100502.80;103788;278;38252;-72
2023/05/17 06:55:26;;;;;;;5.60;4.80;;;;;;;13.41;90.02;100506.35;103890;278;38810;-73
2023/05/17 06:58:02;;;;;;;5.50;4.80;;;;;;;13.41;90.13;100508.97;103754;278;38359;-73
2023/05/17 07:00:37;;;;;;;4.90;4.50;;;;;;;13.39;89.88;100513.11;103847;278;39094;-72
2023/05/17 07:03:12;;;;;;;4.80;4.30;;;;;;;13.39;90.17;100513.29;103782;278;38237;-73
2023/05/17 07:05:48;;;;;;;4.70;4.30;;;;;;;13.39;90.29;100509.45;103207;278;905691;-73
2023/05/17 07:08:23;;;;;;;5.20;4.60;;;;;;;13.36;90.28;100507.64;103811;278;38394;-74
2023/05/17 07:11:00;;;;;;;4.50;4.20;;;;;;;13.35;90.33;100504.55;103790;279;39330;-72
2023/05/17 07:13:34;;;;;;;5.20;4.80;;;;;;;13.39;90.55;100501.73;103829;278;38493;-73
2023/05/17 07:16:10;;;;;;;5.00;4.60;;;;;;;13.39;90.41;100503.11;103773;278;38451;-75
2023/05/17 07:18:46;;;;;;;4.90;4.40;;;;;;;13.41;90.43;100507.41;103756;278;39595;-72
2023/05/17 07:21:22;;;;;;;5.40;4.90;;;;;;;13.40;90.40;100507.64;103757;278;41741;-73
2023/05/17 07:24:01;;;;;;;4.90;4.50;;;;;;;13.41;90.66;100509.90;103840;278;38323;-74
2023/05/17 07:26:41;;;;;;;5.90;4.30;;;;;;;13.45;90.75;100506.52;103676;278;38400;-71
2023/05/17 07:29:21;;;;;;;5.10;4.60;;;;;;;13.47;90.61;100504.71;103787;278;39423;-73
2023/05/17 07:31:56;;;;;;;5.00;4.60;;;;;;;13.50;90.70;100504.56;103687;278;38310;-74
2023/05/17 07:34:34;;;;;;;4.80;4.40;;;;;;;13.52;90.61;100502.52;103791;278;38751;-73
2023/05/17 07:37:15;;;;;;;4.70;4.30;;;;;;;13.51;90.52;100502.05;103805;278;38387;-73
2023/05/17 07:39:49;;;;;;;4.60;4.20;;;;;;;13.50;90.54;100502.79;103833;277;39901;-72
2023/05/17 07:42:29;;;;;;;4.50;4.10;;;;;;;13.51;90.46;100505.58;103823;278;39625;-72
2023/05/17 07:45:06;;;;;;;4.80;4.40;;;;;;;13.50;90.23;100510.48;103823;278;39774;-72
2023/05/17 07:47:44;;;;;;;5.30;4.70;;;;;;;13.49;90.40;100522.29;103818;278;39408;-72
2023/05/17 07:50:18;;;;;;;4.70;4.20;;;;;;;13.45;90.33;100526.31;103819;278;38319;-73
2023/05/17 07:52:56;;;;;;;3.60;3.30;;;;;;;13.45;90.27;100528.29;103743;278;39449;-74
2023/05/17 07:55:33;;;;;;;4.30;4.00;;;;;;;13.45;90.18;100527.03;103869;278;38314;-72
2023/05/17 07:58:08;;;;;;;4.60;4.20;;;;;;;13.45;90.18;100530.19;103736;278;38480;-73
2023/05/17 08:00:48;;;;;;;4.20;3.90;;;;;;;13.46;90.27;100533.47;103700;280;38495;-71
2023/05/17 08:03:22;;;;;;;5.40;5.00;;;;;;;13.48;90.34;100530.42;103741;278;39399;-73
2023/05/17 08:06:02;;;;;;;4.60;3.70;;;;;;;13.53;90.71;100534.16;103821;278;39426;-71
2023/05/17 08:08:37;;;;;;;;;;;;;;;13.61;90.82;100530.98;103880;278;38359;-71
2023/05/17 08:11:13;;;;;;;3.70;3.40;;;;;;;13.63;90.86;100534.39;103836;278;39425;-73
2023/05/17 08:13:47;;;;;;;4.00;3.60;;;;;;;13.62;90.01;100531.85;103794;278;38404;-73
2023/05/17 08:16:21;;;;;;;4.30;3.40;;;;;;;13.58;90.38;100527.64;103831;278;38442;-73
2023/05/17 08:18:56;;;;;;;4.30;3.00;;;;;;;13.62;90.42;100530.27;103826;278;39673;-73
2023/05/17 08:21:31;;;;;;;3.50;3.00;;;;;;;13.67;90.44;100526.70;103832;278;39820;-73
2023/05/17 08:24:06;;;;;;;3.30;2.80;;;;;;;13.68;90.09;100525.77;103783;278;38522;-70
2023/05/17 08:26:40;;;;;;;3.30;3.00;;;;;;;13.66;89.62;100531.27;103789;278;39573;-72
2023/05/17 08:29:17;;;;;;;3.30;3.10;;;;;;;13.65;89.61;100536.07;103820;278;39907;-71
2023/05/17 08:31:51;;;;;;;3.10;2.90;;;;;;;13.64;89.75;100540.84;103798;278;39937;-73
2023/05/17 08:34:25;;;;;;;3.80;3.50;;;;;;;13.64;89.78;100539.45;103794;278;39683;-73
2023/05/17 08:37:00;;;;;;;3.80;3.40;;;;;;;13.65;89.67;100542.91;103809;278;38858;-73
2023/05/17 08:39:37;;;;;;;4.10;3.80;;;;;;;13.72;90.02;100540.31;103813;278;39381;-73
2023/05/17 08:42:12;;;;;;;5.30;3.90;;;;;;;13.83;90.24;100543.08;103173;278;903393;-73
2023/05/17 08:44:46;;;;;;;4.50;3.70;;;;;;;13.82;89.05;100546.98;103817;278;38579;-73
2023/05/17 08:47:25;;;;;;;5.40;4.10;;;;;;;13.77;88.49;100556.20;103797;278;38461;-72
2023/05/17 08:49:59;;;;;;;5.50;4.10;;;;;;;13.77;88.97;100558.09;103803;278;38358;-72
2023/05/17 08:52:34;;;;;;;5.40;4.90;;;;;;;13.79;89.01;100566.60;103811;278;38232;-73
2023/05/17 08:55:10;;;;;;;5.10;4.60;;;;;;;13.81;88.80;100572.82;103846;278;39451;-72
2023/05/17 08:57:48;;;;;;;5.20;4.80;;;;;;;13.77;88.29;100574.27;103834;278;38487;-73
2023/05/17 09:00:25;;;;;;;4.70;4.30;;;;;;;13.68;87.95;100576.77;103839;278;38653;-72
2023/05/17 09:03:00;;;;;;;5.30;4.90;;;;;;;13.62;87.88;100578.45;103798;278;38248;-73
2023/05/17 09:05:38;;;;;;;5.90;5.40;;;;;;;13.63;88.38;100575.97;103858;278;38549;-73
2023/05/17 09:08:14;;;;;;;5.30;4.90;;;;;;;13.65;88.26;100577.61;103841;278;38517;-73
2023/05/17 09:10:53;;;;;;;5.10;4.60;;;;;;;13.63;88.24;100570.34;103915;278;38280;-71
2023/05/17 09:13:28;;;;;;;;;;;;;;;13.66;88.37;100568.63;103856;278;38729;-72
2023/05/17 09:16:07;;;;;;;4.80;4.30;;;;;;;13.74;89.04;100569.84;103674;278;40287;-73
2023/05/17 09:18:42;;;;;;;5.90;4.90;;;;;;;13.81;88.43;100571.59;103850;278;40035;-73
2023/05/17 09:21:17;;;;;;;7.20;5.90;;;;;;;13.83;87.96;100577.66;103771;278;39421;-72
2023/05/17 09:24:02;;;;;;;6.90;6.30;;;;;;;13.73;87.21;100572.14;103889;278;38524;-72
2023/05/17 09:26:45;;;;;;;7.40;5.90;;;;;;;13.62;87.17;100576.00;103805;278;38224;-73
2023/05/17 09:29:23;;;;;;;6.40;5.80;;;;;;;13.51;87.11;100582.11;103690;278;38403;-73
2023/05/17 09:32:13;;;;;;;6.70;6.10;;;;;;;13.43;87.06;100580.94;103834;278;38498;-72
2023/05/17 09:34:47;;;;;;;6.60;6.10;;;;;;;13.39;87.23;100583.92;103792;278;38515;-71
2023/05/17 09:37:24;;;;;;;7.40;6.70;;;;;;;13.32;87.16;100589.48;103682;278;175092;-73
2023/05/17 09:39:59;;;;;;;6.70;6.00;;;;;;;13.26;87.27;100594.69;103711;278;174809;-73
2023/05/17 09:42:35;;;;;;;6.10;5.50;;;;;;;13.23;87.17;100596.75;103817;278;38245;-72
2023/05/17 09:45:13;;;;;;;5.90;5.30;;;;;;;13.16;86.93;100601.75;103800;278;38328;-72
2023/05/17 09:47:47;;;;;;;7.60;6.00;;;;;;;13.09;86.88;100600.69;103814;278;39642;-72
2023/05/17 09:50:23;;;;;;;7.30;5.90;;;;;;;13.07;87.18;100600.08;103828;278;39141;-73
2023/05/17 09:52:57;;;;;;;6.50;5.70;;;;;;;13.04;87.34;100600.56;103819;278;39825;-73
2023/05/17 09:55:31;;;;;;;6.80;6.20;;;;;;;13.05;87.65;100599.63;103737;278;38522;-72
2023/05/17 09:58:09;;;;;;;8.50;6.30;;;;;;;13.07;87.30;100605.15;103784;278;39961;-72
2023/05/17 10:00:46;;;;;;;7.40;6.40;;;;;;;13.04;87.13;100612.61;103779;278;38848;-73
2023/05/17 10:03:22;;;;;;;7.70;6.00;;;;;;;13.07;87.49;100616.89;103813;278;38520;-72
2023/05/17 10:06:01;;;;;;;8.00;5.90;;;;;;;13.09;87.37;100610.63;103828;278;38521;-72
2023/05/17 10:08:36;;;;;;;7.80;6.30;;;;;;;13.08;86.69;100613.30;103795;278;38251;-72
2023/05/17 10:11:12;;;;;;;9.90;6.60;;;;;;;13.02;86.19;100616.05;103801;278;38247;-72
2023/05/17 10:13:52;;;;;;;8.90;6.20;;;;;;;12.96;86.23;100617.73;103813;278;38881;-72
2023/05/17 10:16:26;;;;;;;7.50;5.70;;;;;;;12.96;86.35;100616.86;103884;278;38275;-72
2023/05/17 10:19:02;;;;;;;9.50;5.70;;;;;;;12.96;86.44;100605.30;103841;278;39425;-72
2023/05/17 10:21:37;;;;;;;10.10;6.10;;;;;;;13.01;86.69;100613.98;103728;278;175111;-73
2023/05/17 10:24:12;;;;;;;9.30;6.60;;;;;;;13.02;86.00;100612.20;103852;278;38473;-70
2023/05/17 10:26:51;;;;;;;9.40;7.00;;;;;;;13.02;86.14;100616.04;103864;278;38541;-72
2023/05/17 10:29:25;;;;;;;9.90;6.70;;;;;;;13.02;86.20;100616.58;103850;278;38761;-73
2023/05/17 10:32:06;;;;;;;15.70;10.30;;;;;;;13.02;86.43;100618.85;103882;278;39669;-73
2023/05/17 10:34:41;;;;;;;13.80;9.70;;;;;;;13.02;86.62;100627.08;103871;278;38275;-73
2023/05/17 10:37:15;;;;;;;7.50;6.40;;;;;;;13.04;86.25;100627.35;103908;278;38335;-72
2023/05/17 10:39:55;;;;;;;10.80;7.00;;;;;;;13.07;86.69;100627.04;103883;277;38844;-72
2023/05/17 10:42:34;;;;;;;8.80;6.60;;;;;;;13.05;86.31;100623.27;103892;278;38766;-72
2023/05/17 10:45:11;;;;;;;8.70;6.40;;;;;;;13.06;86.39;100623.77;103890;278;38832;-72
2023/05/17 10:47:48;;;;;;;8.40;5.90;;;;;;;13.09;86.62;100623.60;103879;278;38242;-72
2023/05/17 10:50:26;;;;;;;9.20;6.10;;;;;;;13.13;86.76;100622.17;103157;278;902936;-72
2023/05/17 10:53:03;;;;;;;8.10;5.40;;;;;;;13.16;86.28;100623.48;103705;280;39826;-73
2023/05/17 10:55:43;;;;;;;10.90;6.40;;;;;;;13.17;86.18;100633.58;103865;278;39134;-73
2023/05/17 10:58:22;;;;;;;8.30;5.90;;;;;;;13.22;86.60;100631.81;103834;278;38738;-71
2023/05/17 11:00:59;;;;;;;9.20;5.70;;;;;;;13.27;86.79;100630.23;103838;278;40210;-72
2023/05/17 11:03:38;;;;;;;9.40;5.30;;;;;;;13.32;86.73;100625.44;103795;278;39492;-71
2023/05/17 11:06:22;;;;;;;8.80;5.30;;;;;;;13.35;86.45;100625.47;103832;278;38723;-73
2023/05/17 11:09:17;;;;;;;6.50;4.90;;;;;;;13.40;86.13;100630.31;103788;277;38507;-72
2023/05/17 11:12:08;;;;;;;8.90;4.40;;;;;;;13.41;85.86;100632.70;103846;278;38308;-72
2023/05/17 11:14:56;;;;;;;6.90;4.10;;;;;;;13.42;85.53;100633.17;103849;278;39504;-72
2023/05/17 11:17:48;;;;;;;7.20;3.90;;;;;;;13.46;85.46;100637.05;103799;278;38278;-72
2023/05/17 11:20:42;;;;;;;5.90;3.50;;;;;;;13.50;85.47;100640.39;103832;278;39372;-73
2023/05/17 11:23:19;;;;;;;8.40;4.00;;;;;;;13.57;85.51;100643.05;103749;266;38404;-73
2023/05/17 11:25:55;;;;;;;6.10;3.90;;;;;;;13.62;84.83;100642.46;103804;278;38546;-72
2023/05/17 11:28:35;;;;;;;7.40;4.40;;;;;;;13.62;84.83;100646.13;103773;278;38259;-70
2023/05/17 11:31:09;;;;;;;7.40;4.00;;;;;;;13.58;84.48;100647.35;103784;278;39950;-72
2023/05/17 11:33:46;;;;;;;10.40;4.20;;;;;;;13.56;84.50;100647.44;103800;278;39872;-73
2023/05/17 11:36:22;;;;;;;6.40;3.90;;;;;;;13.56;84.62;100645.88;103722;278;174762;-72
2023/05/17 11:39:16;;;;;;;8.60;4.10;;;;;;;13.57;84.54;100645.15;103821;278;38240;-73
2023/05/17 11:41:57;;;;;;;6.30;4.40;;;;;;;13.57;84.89;100645.98;103828;278;38925;-73
2023/05/17 11:44:36;;;;;;;8.60;4.30;;;;;;;13.58;84.58;100646.86;103871;278;38256;-72
2023/05/17 11:47:13;;;;;;;9.80;4.60;;;;;;;13.57;84.95;100649.86;103826;278;38822;-72
2023/05/17 11:49:57;;;;;;;8.00;3.80;;;;;;;13.60;84.75;100646.23;103868;278;39414;-71
2023/05/17 11:52:33;;;;;;;7.50;4.10;;;;;;;13.58;84.73;100649.48;103313;278;716972;-71
2023/05/17 11:55:14;;;;;;;8.30;4.30;;;;;;;13.54;84.59;100647.39;103826;278;38700;-72
2023/05/17 11:57:53;;;;;;;8.30;4.20;;;;;;;13.52;85.03;100646.41;103843;278;39450;-74
2023/05/17 12:00:31;;;;;;;8.70;4.20;;;;;;;13.56;85.41;100643.27;103846;278;38375;-73
2023/05/17 12:03:23;;;;;;;7.50;3.80;;;;;;;13.61;85.59;100642.33;103829;278;38339;-72
2023/05/17 12:06:09;;;;;;;10.70;4.20;;;;;;;13.60;85.12;100644.81;103707;278;39811;-73
2023/05/17 12:08:45;;;;;;;8.00;4.50;;;;;;;13.60;85.30;100644.11;103850;278;39678;-74